createdAt,value
2022-12-12T00:00:54.058Z,23.45
2022-12-12T00:03:24.143Z,22.35
2022-12-12T00:05:57.235Z,24.02
2022-12-12T00:08:27.512Z,27.60
2022-12-12T00:11:00.123Z,20.00
2022-12-12T00:13:30.365Z,24.58
2022-12-12T00:16:00.332Z,24.58
2022-12-12T00:18:30.454Z,23.60
2022-12-12T00:21:00.811Z,23.50
2022-12-12T00:23:30.838Z,25.55
2022-12-12T00:26:05.623Z,23.30
2022-12-12T00:28:35.934Z,28.92
2022-12-12T00:31:06.204Z,21.85
2022-12-12T00:33:36.207Z,24.67
2022-12-12T00:36:06.217Z,25.73
2022-12-12T00:38:36.473Z,22.17
2022-12-12T00:41:09.100Z,21.17
2022-12-12T00:43:39.384Z,21.65
2022-12-12T00:46:09.642Z,28.50
2022-12-12T00:48:39.632Z,23.80
2022-12-12T00:51:12.042Z,24.55
2022-12-12T00:53:42.346Z,25.25
2022-12-12T00:56:15.156Z,25.08
2022-12-12T00:58:46.551Z,21.98
2022-12-12T01:01:18.137Z,22.58
2022-12-12T01:03:48.443Z,20.35
2022-12-12T01:06:18.711Z,24.10
2022-12-12T01:08:48.935Z,21.70
2022-12-12T01:11:22.020Z,26.20
2022-12-12T01:13:54.071Z,20.48
2022-12-12T01:16:24.491Z,16.75
2022-12-12T01:18:54.865Z,24.90
2022-12-12T01:21:25.272Z,24.27
2022-12-12T01:23:55.655Z,20.10
2022-12-12T01:26:28.410Z,23.90
2022-12-12T01:28:58.412Z,25.55
2022-12-12T01:31:28.392Z,19.98
2022-12-12T01:33:58.759Z,22.88
2022-12-12T01:36:29.188Z,22.15
2022-12-12T01:39:00.795Z,22.08
2022-12-12T01:41:33.428Z,28.45
2022-12-12T01:44:04.789Z,17.23
2022-12-12T01:46:39.508Z,22.45
2022-12-12T01:49:31.245Z,22.10
2022-12-12T01:52:03.649Z,23.30
2022-12-12T01:54:37.427Z,17.05
2022-12-12T01:57:13.216Z,23.42
2022-12-12T01:59:43.690Z,19.95
2022-12-12T02:02:13.918Z,27.65
2022-12-12T02:04:44.940Z,20.98
2022-12-12T02:07:15.567Z,18.77
2022-12-12T02:09:45.856Z,20.88
2022-12-12T02:12:18.754Z,19.30
2022-12-12T02:14:51.934Z,19.25
2022-12-12T02:17:51.636Z,18.65
2022-12-12T02:21:01.716Z,19.17
2022-12-12T02:24:26.219Z,19.60
2022-12-12T02:27:34.620Z,18.77
2022-12-12T02:30:19.401Z,19.15
2022-12-12T02:33:10.091Z,20.80
2022-12-12T02:35:56.783Z,20.63
2022-12-12T02:38:32.641Z,21.08
2022-12-12T02:41:14.630Z,15.80
2022-12-12T02:43:51.799Z,18.95
2022-12-12T02:46:28.282Z,22.75
2022-12-12T02:49:06.002Z,21.92
2022-12-12T02:51:37.551Z,22.10
2022-12-12T02:54:08.970Z,19.20
2022-12-12T02:56:51.790Z,20.45
2022-12-12T02:59:27.115Z,20.83
2022-12-12T03:02:27.917Z,17.17
2022-12-12T03:05:29.411Z,22.88
2022-12-12T03:08:08.161Z,18.13
2022-12-12T03:10:52.782Z,20.00
2022-12-12T03:13:32.043Z,19.52
2022-12-12T03:16:12.774Z,21.77
2022-12-12T03:18:48.271Z,20.00
2022-12-12T03:21:25.527Z,19.48
2022-12-12T03:24:00.105Z,19.90
2022-12-12T03:26:33.099Z,21.25
2022-12-12T03:29:09.068Z,18.90
2022-12-12T03:31:43.641Z,20.20
2022-12-12T03:34:17.905Z,18.13
2022-12-12T03:36:55.164Z,18.00
2022-12-12T03:39:31.590Z,22.92
2022-12-12T03:42:08.700Z,18.77
2022-12-12T03:44:44.023Z,18.90
2022-12-12T03:47:17.059Z,23.70
2022-12-12T03:49:50.510Z,18.98
2022-12-12T03:52:28.647Z,17.55
2022-12-12T03:55:05.569Z,18.85
2022-12-12T03:57:40.731Z,18.73
2022-12-12T04:00:15.415Z,16.08
2022-12-12T04:02:52.328Z,22.33
2022-12-12T04:05:26.107Z,19.75
2022-12-12T04:08:07.821Z,19.27
2022-12-12T04:10:57.313Z,19.15
2022-12-12T04:13:33.716Z,21.40
2022-12-12T04:16:07.474Z,18.25
2022-12-12T04:18:41.939Z,17.65
2022-12-12T04:21:35.126Z,20.38
2022-12-12T04:24:19.273Z,19.77
2022-12-12T04:26:55.122Z,18.15
2022-12-12T04:29:36.415Z,20.17
2022-12-12T04:32:12.747Z,18.85
2022-12-12T04:34:48.585Z,16.67
2022-12-12T04:37:22.330Z,18.58
2022-12-12T04:39:58.894Z,20.05
2022-12-12T04:42:32.500Z,16.63
2022-12-12T04:45:11.998Z,21.50
2022-12-12T04:47:46.128Z,22.67
2022-12-12T04:50:17.372Z,21.38
2022-12-12T04:52:50.978Z,18.88
2022-12-12T04:55:26.300Z,18.63
2022-12-12T04:57:57.530Z,17.80
2022-12-12T05:00:29.636Z,14.75
2022-12-12T05:03:06.773Z,19.90
2022-12-12T05:05:42.379Z,18.02
2022-12-12T05:08:17.750Z,12.32
2022-12-12T05:10:54.705Z,15.07
2022-12-12T05:13:26.971Z,16.95
2022-12-12T05:16:00.080Z,14.38
2022-12-12T05:18:30.720Z,13.32
2022-12-12T05:21:00.930Z,16.85
2022-12-12T05:23:34.619Z,15.95
2022-12-12T05:26:12.998Z,18.20
2022-12-12T05:28:42.947Z,17.90
2022-12-12T05:31:13.233Z,15.82
2022-12-12T05:33:43.194Z,16.77
2022-12-12T05:36:13.986Z,19.67
2022-12-12T05:38:44.746Z,23.30
2022-12-12T05:41:17.484Z,17.40
2022-12-12T05:43:47.430Z,20.40
2022-12-12T05:46:17.719Z,18.63
2022-12-12T05:48:50.573Z,17.90
2022-12-12T05:51:20.961Z,18.30
2022-12-12T05:53:52.622Z,18.23
2022-12-12T05:56:25.266Z,22.33
2022-12-12T05:58:55.613Z,22.60
2022-12-12T06:01:25.874Z,14.85
2022-12-12T06:03:55.970Z,16.85
2022-12-12T06:06:26.228Z,16.27
2022-12-12T06:08:56.164Z,19.33
2022-12-12T06:11:29.014Z,17.48
2022-12-12T06:13:59.355Z,21.05
2022-12-12T06:16:29.573Z,16.02
2022-12-12T06:18:59.866Z,16.13
2022-12-12T06:21:30.412Z,18.80
2022-12-12T06:24:00.607Z,16.13
2022-12-12T06:26:33.205Z,17.25
2022-12-12T06:29:03.167Z,14.55
2022-12-12T06:31:34.086Z,14.07
2022-12-12T06:34:04.320Z,14.82
2022-12-12T06:36:34.565Z,13.88
2022-12-12T06:39:04.752Z,20.40
2022-12-12T06:41:37.624Z,15.02
2022-12-12T06:44:08.059Z,16.95
2022-12-12T06:46:38.321Z,13.57
2022-12-12T06:49:09.998Z,16.10
2022-12-12T06:51:44.454Z,21.70
2022-12-12T06:54:15.074Z,13.30
2022-12-12T06:56:48.722Z,15.52
2022-12-12T06:59:19.444Z,16.75
2022-12-12T07:01:49.772Z,17.10
2022-12-12T07:04:20.524Z,15.38
2022-12-12T07:06:50.880Z,17.45
2022-12-12T07:09:21.804Z,14.93
2022-12-12T07:11:54.552Z,14.18
2022-12-12T07:14:24.511Z,16.70
2022-12-12T07:16:54.540Z,16.42
2022-12-12T07:19:26.449Z,17.50
2022-12-12T07:24:26.317Z,14.25
2022-12-12T07:26:59.161Z,17.70
2022-12-12T07:29:29.232Z,16.67
2022-12-12T07:31:59.458Z,13.65
2022-12-12T07:34:32.627Z,14.85
2022-12-12T07:37:03.459Z,15.02
2022-12-12T07:39:33.694Z,13.82
2022-12-12T07:42:06.352Z,15.65
2022-12-12T07:44:36.375Z,16.70
2022-12-12T07:47:06.798Z,13.68
2022-12-12T07:49:36.962Z,18.17
2022-12-12T07:52:07.741Z,21.17
2022-12-12T07:54:37.680Z,15.30
2022-12-12T07:57:10.256Z,15.23
2022-12-12T07:59:40.452Z,18.67
2022-12-12T08:02:12.496Z,14.38
2022-12-12T08:04:42.779Z,15.07
2022-12-12T08:07:13.021Z,14.93
2022-12-12T08:09:43.046Z,15.52
2022-12-12T08:12:15.673Z,22.38
2022-12-12T08:14:45.691Z,17.45
2022-12-12T08:17:15.821Z,16.13
2022-12-12T08:19:45.907Z,14.45
2022-12-12T08:22:16.163Z,15.95
2022-12-12T08:24:46.385Z,16.27
2022-12-12T08:27:19.084Z,14.02
2022-12-12T08:29:49.294Z,16.33
2022-12-12T08:32:19.300Z,15.80
2022-12-12T08:34:49.560Z,16.25
2022-12-12T08:37:19.586Z,17.70
2022-12-12T08:39:54.174Z,16.55
2022-12-12T08:42:28.236Z,16.33
2022-12-12T08:44:58.337Z,15.75
2022-12-12T08:47:29.663Z,17.35
2022-12-12T08:49:59.821Z,18.85
2022-12-12T08:52:29.880Z,17.75
2022-12-12T08:54:59.891Z,16.77
2022-12-12T08:57:32.502Z,20.92
2022-12-12T09:00:02.494Z,17.20
2022-12-12T09:02:32.710Z,16.08
2022-12-12T09:05:02.794Z,16.77
2022-12-12T09:07:33.521Z,17.40
2022-12-12T09:10:04.887Z,17.30
2022-12-12T09:12:41.872Z,20.35
2022-12-12T09:15:14.622Z,17.88
2022-12-12T09:17:44.927Z,16.98
2022-12-12T09:20:14.990Z,18.95
2022-12-12T09:22:45.228Z,17.85
2022-12-12T09:25:15.678Z,16.73
2022-12-12T09:27:48.618Z,18.90
2022-12-12T09:30:18.614Z,19.63
2022-12-12T09:32:48.853Z,15.73
2022-12-12T09:35:19.138Z,16.13
2022-12-12T09:37:49.254Z,15.50
2022-12-12T09:40:21.974Z,14.95
2022-12-12T09:42:55.187Z,19.50
2022-12-12T09:45:25.632Z,16.70
2022-12-12T09:47:59.777Z,17.05
2022-12-12T09:50:33.967Z,18.75
2022-12-12T09:53:06.604Z,22.30
2022-12-12T09:55:41.934Z,19.27
2022-12-12T09:58:24.012Z,18.83
2022-12-12T10:01:03.104Z,17.58
2022-12-12T10:03:52.857Z,16.70
2022-12-12T10:06:37.095Z,19.60
2022-12-12T10:09:21.778Z,18.45
2022-12-12T10:11:55.411Z,22.20
2022-12-12T10:14:34.593Z,16.52
2022-12-12T10:17:07.632Z,19.48
2022-12-12T10:19:45.569Z,18.17
2022-12-12T10:22:24.561Z,17.10
2022-12-12T10:24:58.910Z,17.52
2022-12-12T10:27:28.919Z,16.67
2022-12-12T10:30:10.125Z,22.90
2022-12-12T10:32:50.346Z,16.92
2022-12-12T10:35:29.517Z,23.80
2022-12-12T10:38:14.044Z,18.70
2022-12-12T10:40:56.258Z,19.63
2022-12-12T10:43:31.801Z,15.23
2022-12-12T10:46:31.042Z,20.30
2022-12-12T10:49:01.254Z,16.50
2022-12-12T10:51:32.460Z,23.02
2022-12-12T10:54:02.486Z,18.50
2022-12-12T10:56:32.673Z,17.05
2022-12-12T10:59:04.250Z,19.33
2022-12-12T11:04:30.524Z,15.70
2022-12-12T11:07:00.841Z,19.33
2022-12-12T11:09:31.937Z,18.40
2022-12-12T11:12:03.764Z,20.02
2022-12-12T11:14:37.825Z,16.27
2022-12-12T11:17:24.041Z,15.88
2022-12-12T11:19:55.579Z,18.13
2022-12-12T11:22:26.419Z,22.58
2022-12-12T11:24:56.835Z,14.25
2022-12-12T11:27:30.242Z,16.85
2022-12-12T11:30:02.404Z,17.50
2022-12-12T11:32:42.128Z,16.08
2022-12-12T11:35:25.976Z,16.42
2022-12-12T11:38:00.300Z,16.77
2022-12-12T11:40:32.255Z,17.70
2022-12-12T11:43:21.030Z,17.90
2022-12-12T11:46:02.147Z,16.15
2022-12-12T11:48:47.060Z,18.75
2022-12-12T11:51:32.700Z,18.02
2022-12-12T11:54:03.529Z,19.60
2022-12-12T11:56:46.296Z,20.45
2022-12-12T11:59:50.052Z,19.90
2022-12-12T12:02:46.328Z,14.90
2022-12-12T12:05:28.472Z,16.55
2022-12-12T12:08:12.773Z,17.63
2022-12-12T12:10:56.500Z,16.40
2022-12-12T12:13:43.710Z,16.02
2022-12-12T12:16:23.410Z,20.83
2022-12-12T12:19:05.986Z,19.67
2022-12-12T12:21:47.811Z,18.05
2022-12-12T12:24:36.993Z,15.05
2022-12-12T12:27:14.006Z,17.90
2022-12-12T12:29:54.943Z,16.85
2022-12-12T12:32:34.957Z,16.10
2022-12-12T12:35:19.742Z,14.82
2022-12-12T12:40:46.146Z,14.90
2022-12-12T12:43:30.268Z,16.63
2022-12-12T12:46:05.372Z,14.77
2022-12-12T12:48:40.267Z,19.65
2022-12-12T12:51:16.420Z,15.40
2022-12-12T12:53:51.963Z,17.48
2022-12-12T12:56:27.619Z,15.32
2022-12-12T12:59:00.986Z,17.20
2022-12-12T13:01:36.893Z,18.02
2022-12-12T13:04:15.008Z,19.00
2022-12-12T13:06:50.330Z,17.48
2022-12-12T13:09:30.194Z,15.25
2022-12-12T13:12:06.846Z,15.50
2022-12-12T13:14:45.437Z,15.63
2022-12-12T13:17:21.370Z,17.25
2022-12-12T13:19:55.750Z,13.90
2022-12-12T13:22:33.181Z,15.02
2022-12-12T13:25:14.176Z,16.48
2022-12-12T13:27:47.107Z,24.02
2022-12-12T13:30:25.107Z,15.73
2022-12-12T13:33:14.547Z,14.57
2022-12-12T13:35:48.725Z,14.02
2022-12-12T13:38:25.264Z,18.73
2022-12-12T13:41:01.933Z,16.25
2022-12-12T13:43:44.326Z,17.80
2022-12-12T13:46:44.092Z,17.80
2022-12-12T13:49:35.414Z,19.08
2022-12-12T13:52:36.386Z,18.20
2022-12-12T13:55:25.663Z,17.92
2022-12-12T13:58:21.920Z,23.50
2022-12-12T14:01:12.026Z,16.30
2022-12-12T14:03:42.174Z,17.90
2022-12-12T14:06:14.522Z,16.25
2022-12-12T14:08:52.924Z,13.85
2022-12-12T14:11:37.136Z,36.58
2022-12-12T14:14:23.059Z,14.93
2022-12-12T14:16:58.016Z,13.98
2022-12-12T14:19:31.974Z,14.50
2022-12-12T14:22:02.209Z,14.73
2022-12-12T14:25:06.397Z,14.82
2022-12-12T14:28:12.335Z,14.43
2022-12-12T14:31:17.670Z,13.52
2022-12-12T14:34:12.171Z,13.95
2022-12-12T14:37:11.579Z,16.60
2022-12-12T14:40:00.346Z,10.13
2022-12-12T14:43:15.485Z,13.57
2022-12-12T14:45:39.771Z,16.98
2022-12-12T14:48:31.619Z,13.20
2022-12-12T14:51:07.739Z,15.60
2022-12-12T14:53:46.601Z,13.93
2022-12-12T14:56:18.698Z,12.70
2022-12-12T14:58:52.724Z,13.13
2022-12-12T15:01:33.019Z,14.43
2022-12-12T15:04:07.517Z,14.98
2022-12-12T15:06:40.056Z,13.82
2022-12-12T15:09:29.320Z,14.20
2022-12-12T15:12:15.408Z,16.02
2022-12-12T15:14:56.649Z,17.80
2022-12-12T15:17:30.287Z,17.10
2022-12-12T15:20:06.032Z,18.58
2022-12-12T15:22:38.743Z,13.98
2022-12-12T15:25:19.720Z,16.25
2022-12-12T15:27:56.060Z,13.63
2022-12-12T15:30:33.867Z,18.20
2022-12-12T15:33:05.064Z,16.33
2022-12-12T15:35:38.230Z,15.63
2022-12-12T15:38:14.841Z,17.23
2022-12-12T15:40:47.754Z,20.67
2022-12-12T15:43:19.816Z,17.75
2022-12-12T15:45:54.991Z,17.70
2022-12-12T15:48:26.128Z,17.40
2022-12-12T15:51:02.189Z,19.70
2022-12-12T15:53:33.937Z,19.77
2022-12-12T15:56:07.642Z,18.83
2022-12-12T15:58:40.497Z,19.98
2022-12-12T16:01:20.698Z,21.33
2022-12-12T16:04:00.183Z,17.65
2022-12-12T16:06:35.115Z,21.50
2022-12-12T16:09:10.459Z,19.55
2022-12-12T16:11:45.963Z,18.90
2022-12-12T16:14:38.945Z,20.85
2022-12-12T16:17:13.293Z,20.63
2022-12-12T16:19:46.580Z,21.52
2022-12-12T16:22:33.601Z,22.17
2022-12-12T16:25:21.892Z,23.55
2022-12-12T16:27:55.095Z,24.65
2022-12-12T16:30:25.251Z,23.75
2022-12-12T16:32:55.487Z,22.27
2022-12-12T16:35:27.265Z,26.17
2022-12-12T16:40:29.995Z,26.98
2022-12-12T16:43:10.988Z,28.63
2022-12-12T16:45:41.691Z,22.92
2022-12-12T16:48:17.814Z,27.38
2022-12-12T16:50:48.732Z,27.95
2022-12-12T16:53:21.925Z,25.45
2022-12-12T16:55:55.916Z,27.10
2022-12-12T16:58:26.495Z,21.95
2022-12-12T17:00:58.307Z,22.17
2022-12-12T17:03:30.039Z,20.00
2022-12-12T17:06:00.242Z,28.92
2022-12-12T17:08:32.958Z,32.55
2022-12-12T17:11:09.973Z,22.95
2022-12-12T17:13:44.996Z,20.52
2022-12-12T17:16:15.051Z,25.08
2022-12-12T17:18:45.177Z,22.83
2022-12-12T17:21:15.149Z,23.58
2022-12-12T17:23:47.773Z,21.17
2022-12-12T17:26:19.153Z,25.80
2022-12-12T17:28:49.201Z,20.88
2022-12-12T17:31:19.459Z,20.83
2022-12-12T17:33:51.020Z,18.77
2022-12-12T17:36:21.762Z,20.65
2022-12-12T17:38:54.484Z,24.27
2022-12-12T17:41:24.556Z,22.90
2022-12-12T17:43:55.648Z,22.17
2022-12-12T17:46:28.747Z,21.92
2022-12-12T17:49:02.125Z,25.27
2022-12-12T17:51:32.514Z,24.38
2022-12-12T17:54:05.166Z,20.20
2022-12-12T17:56:35.362Z,30.65
2022-12-12T17:59:07.212Z,21.88
2022-12-12T18:01:37.396Z,23.40
2022-12-12T18:04:09.159Z,23.92
2022-12-12T18:06:39.863Z,25.50
2022-12-12T18:09:12.503Z,27.60
2022-12-12T18:11:43.705Z,28.83
2022-12-12T18:14:18.764Z,28.38
2022-12-12T18:16:51.411Z,25.30
2022-12-12T18:19:22.407Z,28.38
2022-12-12T18:22:01.892Z,32.72
2022-12-12T18:24:34.933Z,29.77
2022-12-12T18:27:05.695Z,37.40
2022-12-12T18:29:35.732Z,34.92
2022-12-12T18:32:05.976Z,30.30
2022-12-12T18:34:36.221Z,41.92
2022-12-12T18:37:06.215Z,29.55
2022-12-12T18:39:38.854Z,36.15
2022-12-12T18:42:08.861Z,36.63
2022-12-12T18:44:39.142Z,23.77
2022-12-12T18:47:09.165Z,30.58
2022-12-12T18:49:39.706Z,27.27
2022-12-12T18:52:09.751Z,22.20
2022-12-12T18:54:42.359Z,29.70
2022-12-12T18:57:12.337Z,23.88
2022-12-12T18:59:42.628Z,21.27
2022-12-12T19:02:15.872Z,27.77
2022-12-12T19:04:47.237Z,27.55
2022-12-12T19:07:18.538Z,26.08
2022-12-12T19:09:51.249Z,23.10
2022-12-12T19:12:21.232Z,27.40
2022-12-12T19:17:41.452Z,28.38
2022-12-12T19:20:15.657Z,28.85
2022-12-12T19:22:46.886Z,30.85
2022-12-12T19:25:22.007Z,30.80
2022-12-12T19:27:51.970Z,26.48
2022-12-12T19:30:22.240Z,28.25
2022-12-12T19:32:52.230Z,31.30
2022-12-12T19:35:22.620Z,25.77
2022-12-12T19:37:52.704Z,25.58
2022-12-12T19:40:25.376Z,28.10
2022-12-12T19:42:55.400Z,25.95
2022-12-12T19:45:25.472Z,24.50
2022-12-12T19:47:55.536Z,29.58
2022-12-12T19:50:25.601Z,27.30
2022-12-12T19:52:55.849Z,23.77
2022-12-12T19:55:28.465Z,30.95
2022-12-12T19:57:58.471Z,27.10
2022-12-12T20:00:28.568Z,26.73
2022-12-12T20:02:58.785Z,29.75
2022-12-12T20:05:29.049Z,34.67
2022-12-12T20:08:00.125Z,28.60
2022-12-12T20:10:33.128Z,29.90
2022-12-12T20:13:03.104Z,31.98
2022-12-12T20:15:33.323Z,32.30
2022-12-12T20:18:03.504Z,30.92
2022-12-12T20:20:33.512Z,30.73
2022-12-12T20:23:03.528Z,33.33
2022-12-12T20:25:36.141Z,31.73
2022-12-12T20:28:06.340Z,26.45
2022-12-12T20:33:58.709Z,25.27
2022-12-12T20:36:30.942Z,30.58
2022-12-12T20:39:04.590Z,26.58
2022-12-12T20:41:40.440Z,24.90
2022-12-12T20:44:12.180Z,25.30
2022-12-12T20:46:44.427Z,29.50
2022-12-12T20:49:17.764Z,26.63
2022-12-12T20:51:57.262Z,27.15
2022-12-12T20:54:29.078Z,27.63
2022-12-12T20:57:02.258Z,29.60
2022-12-12T20:59:32.456Z,24.77
2022-12-12T21:02:02.988Z,24.15
2022-12-12T21:04:32.984Z,22.27
2022-12-12T21:07:03.032Z,25.00
2022-12-12T21:09:33.045Z,24.85
2022-12-12T21:12:05.795Z,25.27
2022-12-12T21:14:37.270Z,22.33
2022-12-12T21:17:07.779Z,24.63
2022-12-12T21:19:37.727Z,30.40
2022-12-12T21:22:08.521Z,22.02
2022-12-12T21:24:38.776Z,21.77
2022-12-12T21:27:11.366Z,24.90
2022-12-12T21:29:41.430Z,29.70
2022-12-12T21:32:11.393Z,26.63
2022-12-12T21:34:41.771Z,22.75
2022-12-12T21:37:12.006Z,28.52
2022-12-12T21:39:42.328Z,24.50
2022-12-12T21:42:14.928Z,30.30
2022-12-12T21:44:46.004Z,23.17
2022-12-12T21:47:16.320Z,26.52
2022-12-12T21:49:46.289Z,24.67
2022-12-12T21:52:16.541Z,22.65
2022-12-12T21:54:46.535Z,22.95
2022-12-12T21:57:24.646Z,32.05
2022-12-12T22:02:24.946Z,20.02
2022-12-12T22:04:55.002Z,26.50
2022-12-12T22:07:24.965Z,26.10
2022-12-12T22:09:58.117Z,24.42
2022-12-12T22:12:43.891Z,22.25
2022-12-12T22:15:27.531Z,27.65
2022-12-12T22:17:57.824Z,25.17
2022-12-12T22:20:27.781Z,26.55
2022-12-12T22:22:58.087Z,23.27
2022-12-12T22:25:28.084Z,27.67
2022-12-12T22:28:00.650Z,28.20
2022-12-12T22:30:30.622Z,25.33
2022-12-12T22:33:00.654Z,21.58
2022-12-12T22:35:30.926Z,23.67
2022-12-12T22:38:01.178Z,24.90
2022-12-12T22:40:31.136Z,26.58
2022-12-12T22:43:03.911Z,24.27
2022-12-12T22:45:34.133Z,20.00
2022-12-12T22:48:04.100Z,26.48
2022-12-12T22:50:34.135Z,23.15
2022-12-12T22:53:04.195Z,26.30
2022-12-12T22:55:37.127Z,21.20
2022-12-12T22:58:10.037Z,22.48
2022-12-12T23:00:40.507Z,23.27
2022-12-12T23:03:10.514Z,20.92
2022-12-12T23:05:40.825Z,23.55
2022-12-12T23:08:11.216Z,27.88
2022-12-12T23:10:41.216Z,30.02
2022-12-12T23:13:13.769Z,27.50
2022-12-12T23:15:43.782Z,25.75
2022-12-12T23:18:15.613Z,24.02
2022-12-12T23:23:17.708Z,20.25
2022-12-12T23:25:47.752Z,19.98
2022-12-12T23:28:20.365Z,25.73
2022-12-12T23:30:50.372Z,20.63
2022-12-12T23:33:20.575Z,24.00
2022-12-12T23:35:50.711Z,20.77
2022-12-12T23:38:20.933Z,24.05
2022-12-12T23:40:50.917Z,24.33
2022-12-12T23:43:23.583Z,20.08
2022-12-12T23:45:53.633Z,21.05
2022-12-12T23:48:23.655Z,21.05
2022-12-12T23:50:54.071Z,18.98
2022-12-12T23:53:24.114Z,26.73
2022-12-12T23:55:54.617Z,21.27
2022-12-12T23:58:27.329Z,18.95
